Time;durP1;ratioP1;P1;durP2;ratioP2;P2;SDS_P1;SDS_P2;PMS_P1;PMS_P2;Temp;Humidity;BMP_temperature;BMP_pressure;BME280_temperature;BME280_humidity;BME280_pressure;Samples;Min_cycle;Max_cycle;Signal;HPM_P1;HPM_P2
2022/05/17 00:01:52;;;;;;;9.15;2.95;;;;;;;14.96;44.05;100783.45;1809528;79;20969;-73
2022/05/17 00:04:19;;;;;;;4.35;2.35;;;;;;;14.95;44.12;100785.80;1783300;78;20969;-73
2022/05/17 00:06:46;;;;;;;6.03;2.83;;;;;;;14.94;44.16;100783.32;1818428;78;20998;-73
2022/05/17 00:09:12;;;;;;;6.30;2.27;;;;;;;14.90;44.20;100778.00;1794370;80;20974;-73
2022/05/17 00:11:38;;;;;;;5.15;2.60;;;;;;;14.89;44.25;100780.35;1828796;78;21010;-73
2022/05/17 00:14:04;;;;;;;8.75;3.83;;;;;;;14.86;44.30;100786.11;1794896;79;21510;-73
2022/05/17 00:16:30;;;;;;;5.72;2.90;;;;;;;14.82;44.35;100780.78;1782749;79;21029;-73
2022/05/17 00:18:56;;;;;;;7.62;3.08;;;;;;;14.77;44.41;100776.50;1795845;79;21399;-73
2022/05/17 00:21:22;;;;;;;6.67;2.55;;;;;;;14.73;44.47;100779.23;1773163;79;21106;-73
2022/05/17 00:23:49;;;;;;;8.38;2.87;;;;;;;14.70;44.52;100780.45;1771664;79;20937;-73
2022/05/17 00:26:15;;;;;;;6.33;2.87;;;;;;;14.68;44.58;100769.55;1764711;81;21074;-73
2022/05/17 00:28:42;;;;;;;6.85;2.00;;;;;;;14.66;44.62;100779.66;1798865;78;21017;-73
2022/05/17 00:31:09;;;;;;;6.92;2.17;;;;;;;14.61;44.68;100774.01;1799087;78;20982;-73
2022/05/17 00:33:35;;;;;;;7.00;2.55;;;;;;;14.57;44.78;100779.42;1798469;78;21136;-73
2022/05/17 00:36:02;;;;;;;8.03;2.52;;;;;;;14.55;44.86;100782.81;1782121;78;20990;-73
2022/05/17 00:38:28;;;;;;;9.35;2.20;;;;;;;14.49;44.93;100781.19;1796555;79;21056;-73
2022/05/17 00:40:54;;;;;;;4.53;2.30;;;;;;;14.46;45.00;100782.09;1776158;79;21077;-73
2022/05/17 00:46:45;;;;;;;3.65;2.08;;;;;;;14.38;45.11;100766.08;1796564;78;21074;-73
2022/05/17 00:49:16;;;;;;;7.33;2.08;;;;;;;14.34;45.18;100766.96;1796054;78;20967;-73
2022/05/17 00:51:42;;;;;;;4.17;2.10;;;;;;;14.34;45.25;100770.15;1784575;79;21054;-73
2022/05/17 00:54:12;;;;;;;5.70;2.15;;;;;;;14.32;45.25;100764.92;1825159;78;21498;-73
2022/05/17 00:56:40;;;;;;;;;;;;;;;14.32;45.31;100763.58;1770977;80;20990;-73
2022/05/17 00:59:07;;;;;;;5.60;1.98;;;;;;;14.30;45.32;100766.97;1792771;80;21782;-73
2022/05/17 01:01:36;;;;;;;6.50;2.22;;;;;;;14.30;45.35;100757.58;1786162;80;20950;-73
2022/05/17 01:04:12;;;;;;;5.37;2.08;;;;;;;14.30;45.37;100756.23;1774431;79;20983;-73
2022/05/17 01:06:46;;;;;;;4.37;1.85;;;;;;;14.29;45.39;100753.22;1824660;78;20975;-73
2022/05/17 01:09:15;;;;;;;4.20;2.10;;;;;;;14.30;45.38;100758.92;1768089;78;21033;-73
2022/05/17 01:11:41;;;;;;;4.37;2.20;;;;;;;14.28;45.39;100760.13;1794727;78;21086;-73
2022/05/17 01:16:52;;;;;;;5.65;2.33;;;;;;;14.24;45.38;100750.78;1792711;80;20990;-72
2022/05/17 01:19:18;;;;;;;3.95;2.35;;;;;;;14.22;45.40;100739.39;1793523;78;20856;-73
2022/05/17 01:21:44;;;;;;;3.87;2.22;;;;;;;14.20;45.40;100736.91;1786236;80;21073;-73
2022/05/17 01:24:10;;;;;;;3.40;1.82;;;;;;;14.20;45.43;100737.41;1792079;80;21470;-73
2022/05/17 01:26:42;;;;;;;5.15;2.22;;;;;;;14.20;45.43;100727.52;1792566;80;20998;-72
2022/05/17 01:29:07;;;;;;;5.08;2.05;;;;;;;14.20;45.43;100731.55;1798791;78;20982;-73
2022/05/17 01:31:33;;;;;;;5.53;2.02;;;;;;;14.21;45.42;100726.52;1792223;80;20955;-73
2022/05/17 01:33:59;;;;;;;7.20;2.25;;;;;;;14.21;45.41;100726.52;1761399;81;20978;-72
2022/05/17 01:36:25;;;;;;;5.22;1.85;;;;;;;14.23;45.40;100728.48;1806194;78;21017;-72
2022/05/17 01:38:51;;;;;;;4.33;2.12;;;;;;;14.23;45.39;100720.44;1772383;80;21006;-73
2022/05/17 01:41:19;;;;;;;4.03;2.10;;;;;;;14.26;45.36;100717.38;1792633;80;20978;-73
2022/05/17 01:43:45;;;;;;;6.62;2.55;;;;;;;14.27;45.32;100712.84;1792565;80;21655;-73
2022/05/17 01:46:11;;;;;;;6.35;2.10;;;;;;;14.28;45.30;100712.68;1796558;78;21005;-73
2022/05/17 01:48:37;;;;;;;3.08;1.82;;;;;;;14.29;45.25;100706.27;1792525;80;21334;-73
2022/05/17 01:51:07;;;;;;;5.40;2.08;;;;;;;14.32;45.18;100700.53;1790344;80;21486;-73
2022/05/17 01:53:34;;;;;;;7.72;2.05;;;;;;;14.37;45.09;100703.53;1747765;81;21484;-72
2022/05/17 01:56:05;;;;;;;4.10;1.70;;;;;;;14.39;45.02;100709.53;1760322;81;21014;-73
2022/05/17 01:58:32;;;;;;;3.05;1.80;;;;;;;14.42;44.95;100715.89;1751082;81;21061;-73
2022/05/17 02:00:58;;;;;;;4.40;2.00;;;;;;;14.44;44.86;100717.02;1763030;80;21698;-73
2022/05/17 02:03:25;;;;;;;4.62;2.15;;;;;;;14.45;44.79;100712.83;1761844;80;21487;-73
2022/05/17 02:05:51;;;;;;;6.92;2.10;;;;;;;14.43;44.75;100712.67;1760888;81;20979;-72
2022/05/17 02:08:18;;;;;;;3.40;1.70;;;;;;;14.41;44.70;100712.88;1760944;81;21062;-73
2022/05/17 02:10:44;;;;;;;3.47;2.02;;;;;;;14.40;44.69;100714.39;1771809;80;21019;-73
2022/05/17 02:13:10;;;;;;;5.62;2.52;;;;;;;14.42;44.63;100719.91;1815441;78;21054;-73
2022/05/17 02:15:37;;;;;;;4.30;2.00;;;;;;;14.42;44.58;100719.91;1793807;78;20878;-73
2022/05/17 02:18:04;;;;;;;10.60;2.60;;;;;;;14.44;44.54;100715.18;1791436;80;21065;-72
2022/05/17 02:20:34;;;;;;;6.62;2.52;;;;;;;14.43;44.50;100717.53;1772753;81;21003;-73
2022/05/17 02:23:00;;;;;;;4.83;2.12;;;;;;;14.44;44.46;100713.00;1791060;80;21459;-73
2022/05/17 02:25:26;;;;;;;6.35;1.77;;;;;;;14.43;44.43;100714.01;1786566;80;21140;-73
2022/05/17 02:27:52;;;;;;;3.42;2.02;;;;;;;14.44;44.38;100715.18;1810425;78;21014;-73
2022/05/17 02:30:19;;;;;;;4.70;2.25;;;;;;;14.44;44.34;100717.86;1797067;78;21568;-73
2022/05/17 02:32:45;;;;;;;2.62;1.70;;;;;;;14.43;44.31;100713.50;1796055;79;21005;-73
2022/05/17 02:35:12;;;;;;;6.03;1.60;;;;;;;14.42;44.28;100719.91;1729293;83;20995;-73
2022/05/17 02:37:39;;;;;;;6.05;1.85;;;;;;;14.39;44.27;100718.92;1759448;80;22294;-73
2022/05/17 02:40:06;;;;;;;3.00;1.75;;;;;;;14.33;44.28;100715.62;1772074;81;21022;-73
2022/05/17 02:42:32;;;;;;;6.85;1.77;;;;;;;14.29;44.31;100718.34;1763567;80;21507;-73
2022/05/17 02:44:58;;;;;;;4.87;2.25;;;;;;;14.26;44.33;100720.06;1770269;80;21178;-73
2022/05/17 02:47:24;;;;;;;7.10;2.20;;;;;;;14.22;44.36;100721.45;1761055;81;20908;-73
2022/05/17 02:49:50;;;;;;;6.10;1.70;;;;;;;14.17;44.41;100721.19;1761130;81;21150;-73
2022/05/17 02:52:16;;;;;;;4.75;1.90;;;;;;;14.12;44.49;100724.92;1767125;80;21037;-73
2022/05/17 02:54:42;;;;;;;4.53;2.17;;;;;;;14.08;44.55;100728.98;1761920;79;21710;-73
2022/05/17 02:57:08;;;;;;;5.58;1.95;;;;;;;14.04;44.63;100730.90;1792548;80;21029;-73
2022/05/17 02:59:35;;;;;;;4.83;1.82;;;;;;;14.02;44.71;100724.37;1793560;78;20979;-73
2022/05/17 03:02:01;;;;;;;5.25;2.37;;;;;;;13.96;44.79;100734.49;1764723;81;21567;-73
2022/05/17 03:04:28;;;;;;;4.17;1.90;;;;;;;13.94;44.84;100733.83;1804924;78;21037;-73
2022/05/17 03:06:54;;;;;;;4.97;1.98;;;;;;;13.91;44.92;100732.35;1786382;79;21002;-72
2022/05/17 03:09:20;;;;;;;8.10;1.95;;;;;;;13.92;45.18;100734.53;1775341;79;21017;-72
2022/05/17 03:11:46;;;;;;;9.98;2.33;;;;;;;13.90;45.01;100729.84;1778629;79;21006;-72
2022/05/17 03:14:14;;;;;;;7.10;2.17;;;;;;;13.90;45.08;100729.84;1814755;78;21146;-72
2022/05/17 03:16:40;;;;;;;7.15;2.10;;;;;;;13.87;45.14;100731.05;1812771;78;20999;-73
2022/05/17 03:19:07;;;;;;;5.78;2.08;;;;;;;13.85;45.19;100732.26;1810710;78;21046;-72
2022/05/17 03:21:33;;;;;;;9.08;2.37;;;;;;;13.83;45.36;100731.59;1793033;78;20967;-73
2022/05/17 03:24:00;;;;;;;6.72;2.08;;;;;;;13.84;45.34;100719.86;1760668;81;21501;-72
2022/05/17 03:26:26;;;;;;;6.92;2.22;;;;;;;13.86;45.37;100725.89;1792552;80;21002;-73
2022/05/17 03:28:52;;;;;;;4.30;2.17;;;;;;;13.88;45.55;100721.16;1771745;79;21051;-72
2022/05/17 03:31:18;;;;;;;3.87;2.20;;;;;;;13.90;45.39;100733.86;1822701;78;20899;-73
2022/05/17 03:33:44;;;;;;;6.55;2.30;;;;;;;13.91;45.42;100741.73;1824456;78;21483;-73
2022/05/17 03:36:10;;;;;;;6.40;2.02;;;;;;;13.94;45.46;100737.84;1824995;78;21030;-73
2022/05/17 03:38:36;;;;;;;16.07;2.35;;;;;;;13.95;45.45;100736.34;1792106;80;21050;-73
2022/05/17 03:41:02;;;;;;;6.00;1.50;;;;;;;13.96;45.50;100733.98;1766472;80;21017;-73
2022/05/17 03:43:29;;;;;;;7.15;2.30;;;;;;;13.97;45.56;100736.14;1792574;80;21001;-73
2022/05/17 03:45:56;;;;;;;5.45;1.95;;;;;;;13.97;45.58;100736.14;1822619;78;20999;-73
2022/05/17 03:48:24;;;;;;;2.90;2.00;;;;;;;13.97;45.64;100738.82;1783660;79;21652;-73
2022/05/17 03:50:50;;;;;;;5.12;2.20;;;;;;;13.99;45.66;100743.51;1787001;80;21332;-72
2022/05/17 03:53:16;;;;;;;4.37;2.02;;;;;;;14.00;45.70;100749.20;1787094;80;21011;-74
2022/05/17 03:55:42;;;;;;;15.88;3.37;;;;;;;14.00;45.71;100750.55;1787295;80;21426;-73
2022/05/17 03:58:08;;;;;;;5.00;2.45;;;;;;;14.00;45.74;100737.14;1771810;80;20960;-73
2022/05/17 04:00:34;;;;;;;5.08;2.90;;;;;;;13.99;45.77;100746.19;1791451;79;21009;-73
2022/05/17 04:03:01;;;;;;;5.78;2.12;;;;;;;13.99;45.79;100752.89;1819471;78;21105;-73
2022/05/17 04:05:27;;;;;;;4.37;2.08;;;;;;;13.98;45.86;100756.58;1808317;78;20970;-73
2022/05/17 04:07:53;;;;;;;6.60;3.67;;;;;;;13.97;45.92;100771.83;1804071;78;21505;-74
2022/05/17 04:10:19;;;;;;;5.72;2.67;;;;;;;13.99;45.98;100770.33;1809326;78;20852;-73
2022/05/17 04:12:45;;;;;;;7.03;2.65;;;;;;;13.98;46.03;100780.72;1828261;78;20943;-73
2022/05/17 04:15:15;;;;;;;5.08;2.47;;;;;;;13.96;46.14;100788.12;1786304;80;21346;-73
2022/05/17 04:17:41;;;;;;;8.03;2.35;;;;;;;13.91;46.26;100790.50;1767721;81;21571;-73
2022/05/17 04:20:09;;;;;;;4.67;2.22;;;;;;;13.86;46.37;100787.55;1795316;78;21451;-73
2022/05/17 04:22:34;;;;;;;3.90;2.58;;;;;;;13.88;46.51;100797.07;1762583;81;21525;-73
2022/05/17 04:25:00;;;;;;;12.63;5.33;;;;;;;13.91;46.62;100787.83;1794599;80;21021;-73
2022/05/17 04:27:26;;;;;;;18.98;9.85;;;;;;;13.96;46.70;100793.48;1792515;79;21082;-73
2022/05/17 04:29:53;;;;;;;36.75;24.50;;;;;;;14.00;46.79;100794.80;1795292;79;20875;-72
2022/05/17 04:32:18;;;;;;;32.40;21.77;;;;;;;14.04;46.86;100789.90;1795018;79;21001;-73
2022/05/17 04:34:44;;;;;;;23.27;15.38;;;;;;;14.07;46.93;100798.41;1763331;81;21501;-73
2022/05/17 04:37:12;;;;;;;24.18;17.12;;;;;;;14.11;47.00;100794.86;1763483;80;20968;-72
2022/05/17 04:39:38;;;;;;;26.95;16.93;;;;;;;14.16;47.06;100789.25;1790448;78;21125;-73
2022/05/17 04:42:05;;;;;;;22.00;15.23;;;;;;;14.24;47.12;100797.23;1767285;81;20906;-73
2022/05/17 04:44:31;;;;;;;21.25;11.57;;;;;;;14.29;47.16;100802.02;1794818;80;21056;-73
2022/05/17 04:46:57;;;;;;;14.35;8.93;;;;;;;14.31;47.23;100803.52;1795087;79;20942;-73
2022/05/17 04:49:23;;;;;;;10.28;5.28;;;;;;;14.34;47.29;100799.66;1794801;80;20969;-73
2022/05/17 04:51:52;;;;;;;8.10;3.95;;;;;;;14.43;47.40;100794.02;1796365;78;22060;-73
2022/05/17 04:54:18;;;;;;;5.15;3.50;;;;;;;14.47;47.42;100797.16;1795753;79;21001;-73
2022/05/17 04:56:44;;;;;;;6.67;3.55;;;;;;;14.45;47.50;100794.67;1781244;79;21037;-73
2022/05/17 04:59:10;;;;;;;6.05;3.60;;;;;;;14.43;47.57;100802.06;1796262;79;20938;-73
2022/05/17 05:01:36;;;;;;;8.10;3.72;;;;;;;14.36;47.63;100793.08;1795360;79;20891;-73
2022/05/17 05:04:02;;;;;;;7.28;4.00;;;;;;;14.33;47.75;100797.45;1796115;79;21217;-73
2022/05/17 05:06:28;;;;;;;11.03;6.72;;;;;;;14.37;47.88;100800.63;1796013;79;20875;-73
2022/05/17 05:08:54;;;;;;;9.98;6.17;;;;;;;14.42;48.00;100803.10;1796410;79;21001;-73
2022/05/17 05:11:20;;;;;;;7.62;4.80;;;;;;;14.46;48.10;100802.22;1828971;78;20951;-73
2022/05/17 05:13:46;;;;;;;9.85;4.37;;;;;;;14.41;48.23;100809.48;1795479;79;20962;-73
2022/05/17 05:16:13;;;;;;;12.60;3.98;;;;;;;14.43;48.34;100802.06;1765002;81;21221;-73
2022/05/17 05:18:39;;;;;;;8.85;3.98;;;;;;;14.48;48.42;100801.02;1791371;79;21021;-73
2022/05/17 05:21:11;;;;;;;13.03;4.60;;;;;;;14.44;48.54;100795.69;1800172;78;21080;-73
2022/05/17 05:23:39;;;;;;;11.53;4.70;;;;;;;14.45;48.71;100800.05;1791049;78;21026;-73
2022/05/17 05:26:05;;;;;;;9.38;4.53;;;;;;;14.49;48.73;100795.14;1823539;78;21003;-73
2022/05/17 05:28:32;;;;;;;10.40;4.62;;;;;;;14.59;48.74;100803.73;1823495;78;21375;-73
2022/05/17 05:30:58;;;;;;;12.13;5.08;;;;;;;14.68;48.72;100804.45;1797489;79;21014;-73
2022/05/17 05:33:24;;;;;;;18.00;6.30;;;;;;;14.66;48.68;100801.14;1827335;78;21025;-73
2022/05/17 05:35:52;;;;;;;9.83;4.60;;;;;;;14.69;48.69;100806.13;1828460;78;21014;-73
2022/05/17 05:38:18;;;;;;;11.30;5.25;;;;;;;14.80;48.66;100808.34;1763696;81;20989;-73
2022/05/17 05:40:44;;;;;;;8.93;4.80;;;;;;;14.91;48.67;100803.84;1795867;79;21153;-73
2022/05/17 05:43:10;;;;;;;13.28;4.70;;;;;;;14.94;48.61;100802.95;1795845;79;21025;-73
2022/05/17 05:45:36;;;;;;;10.18;4.97;;;;;;;14.94;48.54;100815.55;1787001;78;20866;-73
2022/05/17 05:48:03;;;;;;;9.63;4.37;;;;;;;14.98;48.50;100810.13;1820959;78;20959;-73
2022/05/17 05:50:29;;;;;;;14.53;4.53;;;;;;;14.98;48.48;100808.78;1828194;78;20975;-73
2022/05/17 05:53:08;;;;;;;13.32;4.45;;;;;;;15.11;48.51;100812.96;1827279;78;20974;-73
2022/05/17 05:55:34;;;;;;;9.00;3.80;;;;;;;15.19;48.42;100813.36;1793388;78;21025;-73
2022/05/17 05:58:01;;;;;;;14.65;4.40;;;;;;;15.25;48.40;100816.13;1792589;80;21447;-73
2022/05/17 06:00:27;;;;;;;25.43;12.50;;;;;;;15.34;48.30;100823.56;1797029;78;20986;-73
2022/05/17 06:02:54;;;;;;;24.27;9.50;;;;;;;15.41;48.26;100823.93;1823533;78;20964;-73
2022/05/17 06:05:21;;;;;;;14.40;5.15;;;;;;;15.49;48.24;100816.30;1821647;78;21210;-73
2022/05/17 06:07:47;;;;;;;13.15;5.28;;;;;;;15.46;48.09;100816.14;1733741;81;21006;-73
2022/05/17 06:10:13;;;;;;;8.55;4.35;;;;;;;15.39;47.97;100822.47;1792713;80;20994;-73
2022/05/17 06:12:40;;;;;;;18.23;7.00;;;;;;;15.43;47.95;100825.09;1798525;78;21042;-73
2022/05/17 06:15:07;;;;;;;12.98;5.55;;;;;;;15.46;47.85;100822.86;1824838;78;21070;-73
2022/05/17 06:17:34;;;;;;;9.95;4.00;;;;;;;15.49;47.79;100829.23;1824498;78;21142;-73
2022/05/17 06:20:00;;;;;;;10.15;3.80;;;;;;;15.39;47.64;100834.05;1824942;78;20998;-73
2022/05/17 06:22:26;;;;;;;8.95;4.37;;;;;;;15.33;47.64;100828.61;1822086;78;21015;-73
2022/05/17 06:24:54;;;;;;;8.85;3.45;;;;;;;15.23;47.61;100823.55;1775669;80;21002;-73
2022/05/17 06:27:20;;;;;;;12.13;3.87;;;;;;;15.22;47.66;100829.94;1824691;78;21030;-74
2022/05/17 06:29:46;;;;;;;7.78;3.20;;;;;;;15.21;47.68;100822.89;1792518;80;21733;-74
2022/05/17 06:32:14;;;;;;;9.80;3.83;;;;;;;15.32;47.67;100824.25;1792533;79;20860;-74
2022/05/17 06:34:41;;;;;;;6.30;3.58;;;;;;;15.30;47.63;100820.42;1820271;78;21479;-73
2022/05/17 06:37:08;;;;;;;14.33;3.80;;;;;;;15.30;47.60;100819.08;1796175;78;21045;-73
2022/05/17 06:39:35;;;;;;;9.28;3.58;;;;;;;15.34;47.62;100828.40;1818721;78;20991;-74
2022/05/17 06:42:01;;;;;;;8.43;4.17;;;;;;;15.38;47.58;100829.69;1824648;78;21147;-74
2022/05/17 06:44:28;;;;;;;10.60;4.00;;;;;;;15.35;47.56;100831.42;1825105;78;20975;-74
2022/05/17 06:46:54;;;;;;;10.20;3.80;;;;;;;15.33;47.54;100831.30;1825090;78;21011;-74
2022/05/17 06:49:21;;;;;;;8.30;3.22;;;;;;;15.34;47.57;100825.72;1793617;78;21073;-74
2022/05/17 06:51:48;;;;;;;8.05;4.50;;;;;;;15.37;47.57;100832.08;1792370;79;21002;-74
2022/05/17 06:54:15;;;;;;;10.08;3.70;;;;;;;15.48;47.57;100834.27;1801647;78;21273;-74
2022/05/17 06:56:40;;;;;;;8.15;3.60;;;;;;;15.57;47.51;100840.87;1782927;78;21499;-74
2022/05/17 06:59:07;;;;;;;12.98;3.50;;;;;;;15.62;47.44;100842.50;1791576;78;21471;-74
2022/05/17 07:01:33;;;;;;;6.10;3.33;;;;;;;15.71;47.38;100850.74;1763473;79;21035;-74
2022/05/17 07:03:59;;;;;;;14.63;4.05;;;;;;;15.84;47.37;100849.52;1792425;79;20973;-74
2022/05/17 07:06:26;;;;;;;8.98;4.47;;;;;;;16.04;47.37;100851.89;1764695;81;21160;-74
2022/05/17 07:08:52;;;;;;;8.25;3.90;;;;;;;16.11;47.30;100855.47;1796649;78;20978;-74
2022/05/17 07:14:03;;;;;;;12.68;4.12;;;;;;;16.21;47.16;100865.38;1799992;77;20971;-73
2022/05/17 07:16:29;;;;;;;12.95;4.75;;;;;;;16.18;47.15;100869.81;1792648;80;20978;-74
2022/05/17 07:18:55;;;;;;;8.38;4.17;;;;;;;16.32;47.16;100868.05;1792849;80;22029;-74
2022/05/17 07:21:21;;;;;;;12.18;4.25;;;;;;;16.48;47.16;100872.61;1808922;78;21026;-74
2022/05/17 07:23:47;;;;;;;10.10;3.87;;;;;;;16.57;47.07;100880.58;1794477;78;20986;-74
2022/05/17 07:26:13;;;;;;;9.03;3.90;;;;;;;16.62;47.01;100871.37;1793343;78;21005;-74
2022/05/17 07:28:43;;;;;;;6.67;3.92;;;;;;;16.60;46.92;100874.80;1792827;78;21048;-74
2022/05/17 07:31:10;;;;;;;9.05;4.12;;;;;;;16.57;46.86;100876.00;1792617;80;21240;-74
2022/05/17 07:33:36;;;;;;;7.78;4.30;;;;;;;16.45;46.81;100880.25;1792240;80;21100;-74
2022/05/17 07:36:03;;;;;;;9.23;4.30;;;;;;;16.47;46.85;100888.44;1792739;80;20963;-74
2022/05/17 07:38:29;;;;;;;8.93;4.05;;;;;;;16.54;46.88;100887.67;1822162;78;21038;-74
2022/05/17 07:40:56;;;;;;;11.60;4.50;;;;;;;16.55;46.82;100893.36;1825124;78;20923;-74
2022/05/17 07:43:24;;;;;;;15.55;4.17;;;;;;;16.47;46.82;100891.13;1769103;80;39388;-74
2022/05/17 07:45:50;;;;;;;6.58;4.00;;;;;;;16.45;46.77;100897.24;1749863;79;21035;-74
2022/05/17 07:48:18;;;;;;;8.78;4.10;;;;;;;16.45;46.77;100891.86;1810491;78;21474;-74
2022/05/17 07:50:44;;;;;;;7.25;3.60;;;;;;;16.41;46.71;100894.62;1761305;81;21010;-74
2022/05/17 07:53:11;;;;;;;16.25;4.80;;;;;;;16.41;46.70;100901.86;1792709;80;22105;-74
2022/05/17 07:55:39;;;;;;;9.33;4.67;;;;;;;16.47;46.70;100895.17;1760696;81;21135;-74
2022/05/17 07:58:05;;;;;;;10.82;4.33;;;;;;;16.47;46.65;100903.76;1796484;78;21671;-74
2022/05/17 08:00:32;;;;;;;10.00;5.08;;;;;;;16.45;46.69;100905.83;1761121;81;21768;-74
2022/05/17 08:03:01;;;;;;;7.45;4.10;;;;;;;16.54;46.71;100906.53;1804663;78;20982;-74
2022/05/17 08:05:28;;;;;;;10.08;5.12;;;;;;;16.56;46.68;100907.18;1824919;78;21069;-74
2022/05/17 08:07:54;;;;;;;10.30;3.98;;;;;;;16.52;46.67;100915.30;1765580;80;21006;-74
2022/05/17 08:10:21;;;;;;;8.45;4.20;;;;;;;16.48;46.73;100915.69;1772553;80;20941;-74
2022/05/17 08:12:47;;;;;;;8.50;4.25;;;;;;;16.55;46.82;100912.20;1761283;79;21021;-74
2022/05/17 08:15:14;;;;;;;10.10;3.72;;;;;;;16.63;46.84;100914.28;1811423;78;20990;-74
2022/05/17 08:17:40;;;;;;;10.70;4.20;;;;;;;16.67;46.83;100921.45;1822442;78;21502;-74
2022/05/17 08:20:09;;;;;;;10.93;4.28;;;;;;;16.65;46.87;100920.29;1792919;80;22372;-74
2022/05/17 08:22:41;;;;;;;9.28;3.87;;;;;;;16.57;46.85;100930.40;1824388;78;21005;-74
2022/05/17 08:27:54;;;;;;;10.13;3.77;;;;;;;16.53;46.91;100933.13;1780980;78;21514;-74
2022/05/17 08:30:21;;;;;;;7.47;4.30;;;;;;;16.56;46.94;100936.80;1781390;79;21014;-74
2022/05/17 08:35:51;;;;;;;9.78;4.28;;;;;;;16.57;47.01;100942.52;1761648;80;21015;-75
2022/05/17 08:38:23;;;;;;;6.33;3.90;;;;;;;16.53;47.05;100937.17;1820030;78;20966;-75
2022/05/17 08:41:12;;;;;;;11.90;4.37;;;;;;;16.48;47.08;100943.97;1789038;80;20963;-75
2022/05/17 08:43:55;;;;;;;12.50;4.72;;;;;;;16.47;47.10;100947.67;1804516;78;21443;-74
2022/05/17 08:46:42;;;;;;;10.78;4.55;;;;;;;16.41;47.15;100945.77;1793400;78;21785;-74
2022/05/17 08:49:29;;;;;;;9.23;3.70;;;;;;;16.35;47.20;100954.63;1753624;80;21010;-74
2022/05/17 08:52:07;;;;;;;10.20;4.40;;;;;;;16.30;47.22;100954.36;1787258;78;20991;-74
2022/05/17 08:55:19;;;;;;;11.38;4.53;;;;;;;16.30;47.25;100963.78;1824613;78;21462;-74
2022/05/17 08:57:50;;;;;;;18.20;8.78;;;;;;;16.34;47.33;100957.50;1744449;81;21065;-74
2022/05/17 09:00:42;;;;;;;30.20;14.20;;;;;;;16.39;47.39;100959.11;1793098;78;21909;-74
2022/05/17 09:03:34;;;;;;;9.25;4.28;;;;;;;16.40;47.46;100966.98;1772547;79;20994;-75
2022/05/17 09:06:20;;;;;;;12.43;4.35;;;;;;;16.41;47.48;100970.00;1806975;78;21139;-74
2022/05/17 09:09:13;;;;;;;10.32;3.52;;;;;;;16.36;47.53;100969.73;1793431;78;21045;-74
2022/05/17 09:11:53;;;;;;;16.30;4.28;;;;;;;16.36;47.57;100969.73;1773343;79;21015;-74
2022/05/17 09:14:23;;;;;;;23.02;8.23;;;;;;;16.38;47.60;100972.25;1823867;78;21158;-74
2022/05/17 09:17:00;;;;;;;;;;;;;;;16.34;47.59;100975.00;1793396;80;20986;-74
2022/05/17 09:19:26;;;;;;;16.48;5.25;;;;;;;16.40;47.64;100975.05;1817477;78;20168;-74
2022/05/17 09:21:58;;;;;;;14.58;7.20;;;;;;;16.49;47.64;100975.26;1798403;78;21446;-74
2022/05/17 09:24:21;;;;;;;10.93;3.95;;;;;;;16.58;47.62;100972.44;1781313;78;21573;-74
2022/05/17 09:26:55;;;;;;;6.60;3.80;;;;;;;16.63;47.59;100972.70;1790677;78;21255;-73
2022/05/17 09:29:42;;;;;;;13.93;5.37;;;;;;;16.63;47.57;100968.14;1798434;78;21089;-74
2022/05/17 09:32:11;;;;;;;16.73;7.00;;;;;;;16.69;47.54;100961.12;1822026;78;20982;-74
2022/05/17 09:34:44;;;;;;;16.67;6.08;;;;;;;16.70;47.52;100972.23;1823667;78;20979;-74
2022/05/17 09:37:14;;;;;;;12.40;4.95;;;;;;;16.73;47.50;100977.22;1794758;78;21506;-75
2022/05/17 09:39:50;;;;;;;7.25;3.85;;;;;;;16.77;47.50;100977.99;1792462;80;21116;-75
2022/05/17 09:42:30;;;;;;;12.58;5.70;;;;;;;16.74;47.41;100978.39;1792692;80;21069;-75
2022/05/17 09:44:56;;;;;;;7.92;3.70;;;;;;;16.75;47.39;100981.89;1785402;78;20986;-75
2022/05/17 09:47:27;;;;;;;16.85;4.00;;;;;;;16.67;47.27;100979.36;1787455;78;20969;-75
2022/05/17 09:52:46;;;;;;;16.55;4.87;;;;;;;16.71;47.23;100976.60;1757992;78;21431;-75
2022/05/17 09:55:25;;;;;;;10.82;4.85;;;;;;;16.71;47.17;100983.34;1760394;80;21511;-75
2022/05/17 09:58:11;;;;;;;15.53;7.00;;;;;;;16.70;47.13;100985.19;1792665;78;21061;-75
2022/05/17 10:00:47;;;;;;;10.08;6.17;;;;;;;16.75;47.13;100991.31;1760813;81;21493;-74
2022/05/17 10:03:28;;;;;;;12.90;6.03;;;;;;;16.78;47.09;100985.56;1813521;79;21492;-75
2022/05/17 10:06:16;;;;;;;11.95;4.15;;;;;;;16.83;47.11;100979.89;1793866;78;21930;-75
2022/05/17 10:09:05;;;;;;;11.48;3.45;;;;;;;16.86;47.08;100985.39;1784170;79;21051;-74
2022/05/17 10:11:52;;;;;;;13.62;3.52;;;;;;;16.89;47.09;100985.00;1806303;78;20986;-74
2022/05/17 10:14:26;;;;;;;7.42;3.20;;;;;;;16.94;47.03;100989.30;1784924;79;21005;-75
2022/05/17 10:17:01;;;;;;;8.93;3.05;;;;;;;16.98;46.97;100993.27;1794592;78;21037;-75
2022/05/17 10:19:33;;;;;;;20.85;4.90;;;;;;;17.01;46.98;101003.64;1791532;79;21061;-74
2022/05/17 10:22:25;;;;;;;12.18;3.47;;;;;;;17.10;46.94;100999.75;1821036;78;20967;-74
2022/05/17 10:25:16;;;;;;;12.23;3.20;;;;;;;17.21;46.94;100997.86;1795325;78;21628;-75
2022/05/17 10:27:55;;;;;;;8.43;2.52;;;;;;;17.27;46.86;100997.09;1798966;78;20975;-75
2022/05/17 10:30:53;;;;;;;9.53;2.67;;;;;;;17.42;46.80;100993.73;1790192;78;21085;-75
2022/05/17 10:33:23;;;;;;;16.37;3.10;;;;;;;17.51;46.70;100998.96;1729899;80;21194;-75
2022/05/17 10:36:07;;;;;;;5.33;3.42;;;;;;;17.68;46.64;100997.61;1791957;78;20982;-75
2022/05/17 10:38:38;;;;;;;8.05;2.58;;;;;;;17.83;46.58;100993.74;1810884;78;21105;-75
2022/05/17 10:41:06;;;;;;;7.37;3.05;;;;;;;18.06;46.40;100995.23;1801646;77;20958;-75
2022/05/17 10:43:44;;;;;;;13.75;4.03;;;;;;;18.15;46.13;100986.77;1793063;80;20983;-75
2022/05/17 10:46:20;;;;;;;11.10;3.72;;;;;;;18.24;45.96;100992.27;1782531;79;21010;-75
2022/05/17 10:49:16;;;;;;;9.68;2.40;;;;;;;18.35;45.72;100996.23;1791898;80;21518;-75
2022/05/17 10:52:17;;;;;;;9.25;2.47;;;;;;;18.50;45.50;100997.40;1758821;81;21061;-75
2022/05/17 10:54:58;;;;;;;11.93;3.12;;;;;;;18.82;45.24;100997.95;1717610;82;21015;-75
2022/05/17 10:57:40;;;;;;;9.20;3.30;;;;;;;19.10;44.79;101005.83;1716171;81;21100;-75
2022/05/17 11:00:21;;;;;;;11.20;3.08;;;;;;;19.19;44.50;101010.79;1766702;80;21213;-75
2022/05/17 11:03:29;;;;;;;8.35;2.00;;;;;;;19.27;44.20;101003.81;1768918;78;21019;-75
2022/05/17 11:06:32;;;;;;;6.67;2.17;;;;;;;19.49;43.81;101018.45;1799719;78;21056;-75
2022/05/17 11:09:25;;;;;;;5.47;3.02;;;;;;;19.77;43.31;101013.56;1804331;78;21002;-76
2022/05/17 11:11:57;;;;;;;6.75;2.58;;;;;;;20.10;42.93;101015.56;1783721;78;21057;-76
2022/05/17 11:14:37;;;;;;;7.97;2.65;;;;;;;20.42;42.58;101014.56;1792612;77;21174;-75
2022/05/17 11:17:55;;;;;;;4.78;2.40;;;;;;;20.52;42.11;101006.46;1727048;79;21041;-75
2022/05/17 11:20:42;;;;;;;7.10;2.52;;;;;;;20.71;41.69;101023.11;1803683;77;20999;-75
2022/05/17 11:23:24;;;;;;;6.87;2.35;;;;;;;20.75;41.28;101021.09;1775357;78;21514;-75
2022/05/17 11:26:30;;;;;;;8.28;2.52;;;;;;;20.59;40.77;101019.44;1800953;78;21568;-75
2022/05/17 11:29:31;;;;;;;9.88;2.20;;;;;;;20.48;40.67;101020.97;1824985;78;21159;-75
2022/05/17 11:32:16;;;;;;;7.45;2.25;;;;;;;20.22;40.35;101021.97;1824786;78;20951;-75
2022/05/17 11:34:44;;;;;;;7.80;2.12;;;;;;;20.19;40.27;101018.34;1795114;78;21479;-75
2022/05/17 11:37:37;;;;;;;8.13;2.10;;;;;;;20.11;40.12;101021.30;1824919;78;20975;-75
2022/05/17 11:40:07;;;;;;;14.63;2.40;;;;;;;20.08;40.09;101024.45;1815183;78;20976;-75
2022/05/17 11:42:35;;;;;;;4.33;2.47;;;;;;;20.03;40.05;101031.02;1825214;78;21085;-75
2022/05/17 11:45:20;;;;;;;10.30;2.50;;;;;;;20.09;39.92;101027.44;1824778;78;20960;-75
2022/05/17 11:47:57;;;;;;;9.45;2.40;;;;;;;19.92;39.70;101027.63;1824672;78;21029;-75
2022/05/17 11:50:32;;;;;;;5.65;2.08;;;;;;;19.86;39.63;101036.11;1824789;78;21022;-75
2022/05/17 11:53:28;;;;;;;5.28;2.65;;;;;;;19.71;39.38;101027.94;1802346;78;21045;-75
2022/05/17 11:56:22;;;;;;;8.30;2.35;;;;;;;19.54;39.30;101039.76;1784890;79;21502;-75